Time;durP1;ratioP1;P1;durP2;ratioP2;P2;SDS_P1;SDS_P2;PMS_P1;PMS_P2;Temp;Humidity;BMP_temperature;BMP_pressure;BME280_temperature;BME280_humidity;BME280_pressure;Samples;Min_cycle;Max_cycle;Signal;HPM_P1;HPM_P2
2022/06/06 00:00:29;;;;;;;;;;;18.10;68.10;;;;;;5081420;28;19916;-47
2022/06/06 00:02:56;;;;;;;;;;;17.80;67.20;;;;;;5084030;28;19928;-55
2022/06/06 00:05:23;;;;;;;;;;;17.60;69.10;;;;;;5075291;28;19912;-40
2022/06/06 00:07:50;;;;;;;;;;;17.90;68.90;;;;;;5074595;28;19928;-49
2022/06/06 00:10:16;;;;;;;;;;;18.00;68.30;;;;;;5076895;28;19919;-49
2022/06/06 00:12:43;;;;;;;;;;;17.90;65.80;;;;;;5071531;28;19909;-51
2022/06/06 00:15:11;;;;;;;;;;;18.00;68.40;;;;;;5073309;28;19908;-55
2022/06/06 00:17:38;;;;;;;;;;;18.00;68.90;;;;;;5081417;28;19934;-47
2022/06/06 00:20:05;;;;;;;;;;;18.00;66.90;;;;;;5072456;28;20434;-47
2022/06/06 00:22:32;;;;;;;;;;;18.00;67.60;;;;;;5071426;28;19999;-50
2022/06/06 00:24:58;;;;;;;;;;;18.00;67.20;;;;;;5072314;28;19916;-54
2022/06/06 00:27:25;;;;;;;;;;;18.10;67.90;;;;;;5071707;28;19939;-47
2022/06/06 00:29:53;;;;;;;;;;;18.10;67.40;;;;;;5070796;28;19916;-48
2022/06/06 00:35:22;;;;;;;;;;;18.20;66.40;;;;;;5012522;28;19910;-47
2022/06/06 00:37:49;;;;;;;;;;;18.10;67.80;;;;;;5057876;28;19913;-46
2022/06/06 00:40:18;;;;;;;;;;;18.20;67.10;;;;;;5070726;28;19919;-41
2022/06/06 00:42:45;;;;;;;;;;;18.20;66.20;;;;;;5074638;28;19989;-47
2022/06/06 00:45:21;;;;;;;;;;;18.30;66.70;;;;;;5072273;28;19909;-50
2022/06/06 00:48:07;;;;;;;;;;;18.30;66.60;;;;;;5075871;28;20339;-52
2022/06/06 00:50:43;;;;;;;;;;;18.40;64.40;;;;;;5043778;28;19962;-52
2022/06/06 00:53:11;;;;;;;;;;;18.50;65.30;;;;;;5072284;28;19908;-58
2022/06/06 00:55:41;;;;;;;;;;;18.60;64.70;;;;;;5074500;28;19909;-51
2022/06/06 00:58:13;;;;;;;;;;;18.60;65.70;;;;;;5072175;28;19952;-55
2022/06/06 01:00:40;;;;;;;;;;;18.70;65.90;;;;;;5077204;28;19916;-44
2022/06/06 01:03:08;;;;;;;;;;;18.60;65.40;;;;;;5074494;28;19961;-48
2022/06/06 01:05:35;;;;;;;;;;;18.60;65.40;;;;;;5073896;28;19923;-47
2022/06/06 01:08:03;;;;;;;;;;;18.60;65.10;;;;;;5081771;28;19952;-58
2022/06/06 01:10:30;;;;;;;;;;;18.60;63.20;;;;;;5078748;28;19993;-50
2022/06/06 01:12:57;;;;;;;;;;;18.70;60.60;;;;;;5083990;28;20390;-49
2022/06/06 01:15:26;;;;;;;;;;;18.70;63.20;;;;;;5081126;28;19978;-53
2022/06/06 01:17:58;;;;;;;;;;;18.60;61.00;;;;;;5079389;28;20016;-48
2022/06/06 01:20:43;;;;;;;;;;;18.50;60.30;;;;;;5081694;28;19908;-52
2022/06/06 01:23:19;;;;;;;;;;;18.60;61.60;;;;;;5086442;28;20252;-52
2022/06/06 01:25:55;;;;;;;;;;;18.60;58.70;;;;;;5085087;28;20412;-54
2022/06/06 01:28:39;;;;;;;;;;;18.60;58.90;;;;;;5080439;28;19912;-54
2022/06/06 01:31:09;;;;;;;;;;;18.60;60.10;;;;;;5080012;28;19912;-53
2022/06/06 01:33:50;;;;;;;;;;;18.60;57.00;;;;;;5086076;28;20355;-51
2022/06/06 01:36:17;;;;;;;;;;;18.40;60.40;;;;;;5086136;28;19908;-53
2022/06/06 01:38:44;;;;;;;;;;;18.40;61.20;;;;;;5085380;28;20113;-48
2022/06/06 01:41:12;;;;;;;;;;;18.50;60.50;;;;;;5081847;28;19908;-49
2022/06/06 01:43:56;;;;;;;;;;;18.70;60.90;;;;;;5087422;28;20011;-48
2022/06/06 01:46:27;;;;;;;;;;;18.80;59.30;;;;;;5085511;28;20414;-48
2022/06/06 01:48:54;;;;;;;;;;;18.90;60.10;;;;;;5082228;28;19966;-50
2022/06/06 01:51:23;;;;;;;;;;;19.00;60.00;;;;;;5081560;28;19915;-49
2022/06/06 01:53:50;;;;;;;;;;;19.10;60.50;;;;;;5082553;28;19915;-50
2022/06/06 01:56:20;;;;;;;;;;;19.20;58.30;;;;;;5084386;28;19909;-44
2022/06/06 01:58:48;;;;;;;;;;;19.20;59.40;;;;;;5084726;28;19920;-58
2022/06/06 02:01:15;;;;;;;;;;;19.20;59.90;;;;;;5076043;28;19915;-59
2022/06/06 02:03:42;;;;;;;;;;;19.30;60.40;;;;;;5083223;28;19974;-54
2022/06/06 02:06:09;;;;;;;;;;;19.50;58.40;;;;;;5055050;28;20028;-50
2022/06/06 02:08:36;;;;;;;;;;;19.50;58.40;;;;;;5069553;28;20020;-48
2022/06/06 02:11:03;;;;;;;;;;;19.50;58.90;;;;;;5074525;28;19916;-42
2022/06/06 02:13:30;;;;;;;;;;;19.50;58.60;;;;;;5086917;28;20276;-53
2022/06/06 02:15:57;;;;;;;;;;;19.60;59.60;;;;;;5081561;28;19924;-55
2022/06/06 02:18:27;;;;;;;;;;;19.70;59.00;;;;;;5083923;28;19978;-45
2022/06/06 02:20:55;;;;;;;;;;;19.90;59.90;;;;;;5078355;28;19962;-58
2022/06/06 02:23:22;;;;;;;;;;;19.90;59.10;;;;;;5064546;28;19909;-51
2022/06/06 02:25:49;;;;;;;;;;;20.00;58.10;;;;;;5084976;28;19915;-50
2022/06/06 02:28:15;;;;;;;;;;;20.00;58.10;;;;;;5085084;28;19993;-45
2022/06/06 02:30:42;;;;;;;;;;;19.90;58.30;;;;;;5079770;28;20365;-42
2022/06/06 02:33:09;;;;;;;;;;;20.20;57.30;;;;;;5083665;28;19914;-45
2022/06/06 02:35:38;;;;;;;;;;;20.10;58.40;;;;;;5085882;28;19923;-46
2022/06/06 02:38:05;;;;;;;;;;;20.10;59.10;;;;;;5085426;28;19916;-56
2022/06/06 02:40:32;;;;;;;;;;;20.20;58.10;;;;;;5079159;28;19923;-54
2022/06/06 02:42:59;;;;;;;;;;;20.30;59.50;;;;;;5086287;28;19908;-56
2022/06/06 02:45:30;;;;;;;;;;;20.50;57.30;;;;;;5084882;28;19915;-40
2022/06/06 02:47:57;;;;;;;;;;;20.70;58.70;;;;;;5063082;28;19920;-56
2022/06/06 02:50:26;;;;;;;;;;;20.70;57.30;;;;;;5079085;28;19965;-46
2022/06/06 02:52:53;;;;;;;;;;;20.80;58.10;;;;;;5083953;28;20347;-45
2022/06/06 02:55:21;;;;;;;;;;;21.10;58.20;;;;;;5066829;28;19908;-41
2022/06/06 02:57:49;;;;;;;;;;;21.00;58.10;;;;;;5084696;28;19912;-43
2022/06/06 03:00:19;;;;;;;;;;;21.10;57.40;;;;;;5077783;28;19908;-41
2022/06/06 03:02:46;;;;;;;;;;;21.20;56.80;;;;;;5084337;28;20382;-42
2022/06/06 03:05:13;;;;;;;;;;;21.10;56.50;;;;;;5085072;28;19920;-45
2022/06/06 03:07:50;;;;;;;;;;;21.30;56.50;;;;;;5084882;28;19966;-47
2022/06/06 03:10:34;;;;;;;;;;;21.20;58.10;;;;;;5094445;28;20369;-49
2022/06/06 03:13:19;;;;;;;;;;;21.20;57.10;;;;;;5077466;28;19908;-52
2022/06/06 03:21:54;;;;;;;;;;;21.30;57.20;;;;;;5095688;28;19935;-49
2022/06/06 03:24:29;;;;;;;;;;;21.40;56.70;;;;;;5095604;28;20281;-58
2022/06/06 03:27:15;;;;;;;;;;;21.40;57.30;;;;;;5095505;28;20488;-54
2022/06/06 03:29:51;;;;;;;;;;;21.40;57.30;;;;;;5094875;28;19972;-49
2022/06/06 03:32:29;;;;;;;;;;;21.30;56.60;;;;;;5095212;28;19960;-56
2022/06/06 03:35:14;;;;;;;;;;;21.20;57.20;;;;;;5094110;28;20305;-55
2022/06/06 03:37:46;;;;;;;;;;;21.20;56.60;;;;;;5095139;28;19909;-58
2022/06/06 03:40:12;;;;;;;;;;;21.10;58.30;;;;;;5094980;28;20057;-56
2022/06/06 03:42:48;;;;;;;;;;;21.00;57.90;;;;;;5094516;28;19912;-52
2022/06/06 03:45:15;;;;;;;;;;;21.00;58.60;;;;;;5094627;28;19963;-56
2022/06/06 03:47:51;;;;;;;;;;;20.90;58.40;;;;;;5094873;28;19930;-56
2022/06/06 03:50:18;;;;;;;;;;;20.80;58.00;;;;;;5095431;28;20283;-58
2022/06/06 03:52:44;;;;;;;;;;;20.90;59.00;;;;;;5094451;28;20369;-45
2022/06/06 03:55:27;;;;;;;;;;;20.80;58.50;;;;;;5095127;28;19908;-51
2022/06/06 03:57:56;;;;;;;;;;;20.90;58.80;;;;;;5094617;28;19911;-54
2022/06/06 04:00:23;;;;;;;;;;;20.80;58.40;;;;;;5094202;28;19989;-53
2022/06/06 04:02:50;;;;;;;;;;;20.80;58.30;;;;;;5094098;28;19956;-49
2022/06/06 04:05:18;;;;;;;;;;;20.70;59.50;;;;;;5094807;28;20377;-53
2022/06/06 04:07:45;;;;;;;;;;;20.80;56.40;;;;;;5094592;28;20036;-46
2022/06/06 04:10:16;;;;;;;;;;;20.90;56.80;;;;;;5093912;28;20126;-50
2022/06/06 04:12:46;;;;;;;;;;;21.10;58.40;;;;;;5075700;28;19959;-53
2022/06/06 04:15:28;;;;;;;;;;;21.20;58.40;;;;;;5075775;28;19961;-55
2022/06/06 04:18:18;;;;;;;;;;;21.30;57.40;;;;;;5094222;28;19952;-47
2022/06/06 04:20:51;;;;;;;;;;;21.30;57.40;;;;;;5064556;28;19944;-56
2022/06/06 04:23:37;;;;;;;;;;;21.10;57.30;;;;;;5094100;28;19915;-59
2022/06/06 04:26:12;;;;;;;;;;;21.30;57.20;;;;;;5093286;28;19915;-54
2022/06/06 04:28:39;;;;;;;;;;;21.40;55.30;;;;;;5093446;28;19951;-52
2022/06/06 04:31:23;;;;;;;;;;;21.40;56.70;;;;;;5093768;28;19956;-60
2022/06/06 04:34:22;;;;;;;;;;;21.50;57.30;;;;;;5093806;28;20004;-57
2022/06/06 04:36:57;;;;;;;;;;;21.50;56.90;;;;;;5059043;28;20362;-49
2022/06/06 04:39:47;;;;;;;;;;;21.60;55.90;;;;;;5093992;28;19923;-55
2022/06/06 04:42:31;;;;;;;;;;;21.60;54.50;;;;;;5094156;28;20306;-57
2022/06/06 04:45:13;;;;;;;;;;;21.50;56.60;;;;;;5093013;28;19920;-58
2022/06/06 04:47:41;;;;;;;;;;;21.50;56.60;;;;;;5092763;28;19959;-52
2022/06/06 04:50:13;;;;;;;;;;;21.30;56.00;;;;;;5093119;28;19908;-57
2022/06/06 04:52:41;;;;;;;;;;;21.10;57.90;;;;;;5093281;28;19919;-60
2022/06/06 04:55:09;;;;;;;;;;;21.20;56.30;;;;;;5093323;28;19915;-42
2022/06/06 04:57:42;;;;;;;;;;;21.20;55.90;;;;;;5093621;28;19939;-52
2022/06/06 05:00:09;;;;;;;;;;;21.30;56.00;;;;;;5093605;28;20354;-57
2022/06/06 05:02:39;;;;;;;;;;;21.40;55.80;;;;;;5092986;28;19908;-57
2022/06/06 05:05:06;;;;;;;;;;;21.40;55.60;;;;;;5093805;28;20307;-46
2022/06/06 05:07:56;;;;;;;;;;;21.40;57.10;;;;;;5092587;28;20363;-61
2022/06/06 05:10:37;;;;;;;;;;;21.40;56.80;;;;;;5092987;28;19984;-53
2022/06/06 05:13:10;;;;;;;;;;;21.50;56.80;;;;;;5091767;28;19951;-53
2022/06/06 05:15:55;;;;;;;;;;;21.40;55.20;;;;;;5093363;28;19958;-56
2022/06/06 05:18:34;;;;;;;;;;;21.30;55.50;;;;;;5091918;28;19916;-51
2022/06/06 05:21:19;;;;;;;;;;;21.00;55.10;;;;;;5091228;28;19915;-46
2022/06/06 05:23:48;;;;;;;;;;;20.80;55.00;;;;;;5090799;28;19974;-41
2022/06/06 05:26:15;;;;;;;;;;;20.70;55.70;;;;;;5072879;28;19909;-49
2022/06/06 05:28:51;;;;;;;;;;;20.60;55.20;;;;;;5089883;28;19912;-45
2022/06/06 05:31:33;;;;;;;;;;;20.50;56.70;;;;;;5089747;28;19934;-48
2022/06/06 05:34:06;;;;;;;;;;;20.40;57.50;;;;;;5091734;28;19920;-52
2022/06/06 05:36:50;;;;;;;;;;;20.40;56.00;;;;;;5092460;28;19981;-49
2022/06/06 05:39:39;;;;;;;;;;;20.40;56.40;;;;;;5074043;28;19934;-52
2022/06/06 05:42:15;;;;;;;;;;;20.20;56.40;;;;;;5091978;28;19915;-48
2022/06/06 05:44:50;;;;;;;;;;;20.10;56.30;;;;;;5091538;28;19919;-57
2022/06/06 05:47:20;;;;;;;;;;;19.90;59.40;;;;;;5092232;28;19990;-47
2022/06/06 05:49:55;;;;;;;;;;;19.60;58.40;;;;;;5092353;28;19970;-61
2022/06/06 05:52:22;;;;;;;;;;;19.40;58.30;;;;;;5092683;28;20008;-58
2022/06/06 05:55:13;;;;;;;;;;;19.20;58.90;;;;;;5091578;28;19936;-45
2022/06/06 05:57:52;;;;;;;;;;;19.00;60.60;;;;;;5092353;28;20420;-44
2022/06/06 06:00:22;;;;;;;;;;;18.70;60.90;;;;;;5092190;28;19919;-55
2022/06/06 06:02:49;;;;;;;;;;;18.60;61.70;;;;;;5092039;28;19920;-56
2022/06/06 06:05:19;;;;;;;;;;;18.50;62.40;;;;;;5092426;28;19908;-54
2022/06/06 06:07:49;;;;;;;;;;;18.40;61.10;;;;;;5088214;28;19935;-50
2022/06/06 06:10:27;;;;;;;;;;;18.30;60.60;;;;;;5091780;28;19962;-41
2022/06/06 06:12:53;;;;;;;;;;;18.20;62.70;;;;;;5069941;28;19981;-51
2022/06/06 06:15:39;;;;;;;;;;;18.10;63.60;;;;;;5070060;28;19977;-49
2022/06/06 06:18:10;;;;;;;;;;;18.10;62.80;;;;;;5073365;28;20068;-52
2022/06/06 06:20:59;;;;;;;;;;;18.00;63.30;;;;;;5076308;28;20036;-48
2022/06/06 06:23:29;;;;;;;;;;;18.00;63.30;;;;;;5076415;28;19961;-53
2022/06/06 06:25:58;;;;;;;;;;;17.90;64.10;;;;;;5080383;28;19912;-43
2022/06/06 06:28:26;;;;;;;;;;;17.80;63.50;;;;;;5080795;28;20007;-43
2022/06/06 06:31:02;;;;;;;;;;;17.80;63.80;;;;;;5083576;28;20171;-47
2022/06/06 06:33:29;;;;;;;;;;;17.70;62.90;;;;;;5078710;28;20000;-42
2022/06/06 06:36:21;;;;;;;;;;;17.70;63.90;;;;;;5081922;28;20423;-41
2022/06/06 06:38:54;;;;;;;;;;;17.70;63.60;;;;;;5080803;28;19973;-49
2022/06/06 06:41:41;;;;;;;;;;;17.60;64.50;;;;;;5087408;28;19908;-52
2022/06/06 06:44:12;;;;;;;;;;;17.60;64.50;;;;;;5076501;28;19951;-53
2022/06/06 06:46:43;;;;;;;;;;;17.50;64.90;;;;;;5086216;28;19944;-49
2022/06/06 06:49:13;;;;;;;;;;;17.40;65.60;;;;;;5091880;28;19982;-47
2022/06/06 06:51:55;;;;;;;;;;;17.40;65.60;;;;;;5084007;28;19912;-50
2022/06/06 06:54:35;;;;;;;;;;;17.30;65.00;;;;;;5075042;28;20315;-44
2022/06/06 06:57:20;;;;;;;;;;;17.30;65.50;;;;;;5063380;28;19908;-54
2022/06/06 06:59:59;;;;;;;;;;;17.30;65.30;;;;;;5075621;28;20355;-60
2022/06/06 07:10:57;;;;;;;;;;;17.20;66.10;;;;;;5091053;28;19961;-63
2022/06/06 07:13:26;;;;;;;;;;;17.10;66.00;;;;;;5090122;28;19908;-58
2022/06/06 07:16:03;;;;;;;;;;;17.10;66.30;;;;;;5089872;28;20003;-56
2022/06/06 07:18:33;;;;;;;;;;;17.10;65.40;;;;;;5091719;28;20032;-59
2022/06/06 07:21:00;;;;;;;;;;;17.10;65.60;;;;;;5090562;28;19923;-57
2022/06/06 07:23:29;;;;;;;;;;;17.10;66.00;;;;;;5090125;28;20278;-54
2022/06/06 07:25:58;;;;;;;;;;;17.10;66.60;;;;;;5091999;28;19992;-41
2022/06/06 07:28:25;;;;;;;;;;;17.00;65.70;;;;;;5091924;28;20363;-52
2022/06/06 07:31:10;;;;;;;;;;;17.00;66.30;;;;;;5092600;28;20383;-58
2022/06/06 07:33:40;;;;;;;;;;;17.00;66.50;;;;;;5089835;28;19912;-55
2022/06/06 07:36:20;;;;;;;;;;;16.90;64.20;;;;;;5092195;28;19994;-42
2022/06/06 07:38:47;;;;;;;;;;;16.90;67.00;;;;;;5090463;28;19943;-41
2022/06/06 07:41:17;;;;;;;;;;;16.90;66.80;;;;;;5094486;28;20025;-44
2022/06/06 07:43:52;;;;;;;;;;;16.80;67.10;;;;;;5094518;28;19998;-48
2022/06/06 07:46:25;;;;;;;;;;;16.80;66.70;;;;;;5094726;28;19908;-52
2022/06/06 07:48:58;;;;;;;;;;;16.80;66.70;;;;;;5095001;28;19915;-52
2022/06/06 07:51:51;;;;;;;;;;;16.80;67.30;;;;;;5093908;28;19919;-42
2022/06/06 07:54:38;;;;;;;;;;;16.70;66.90;;;;;;5077932;28;20350;-43
2022/06/06 07:57:12;;;;;;;;;;;16.70;67.30;;;;;;5094747;28;19965;-56
2022/06/06 07:59:42;;;;;;;;;;;16.70;67.10;;;;;;5094119;28;20019;-44
2022/06/06 08:02:14;;;;;;;;;;;16.70;65.10;;;;;;5089722;28;20398;-50
2022/06/06 08:04:47;;;;;;;;;;;16.70;66.90;;;;;;5089049;28;19916;-52
2022/06/06 08:07:13;;;;;;;;;;;16.70;67.40;;;;;;5092852;28;19916;-55
2022/06/06 08:09:53;;;;;;;;;;;16.60;66.80;;;;;;5081520;28;20003;-50
2022/06/06 08:12:37;;;;;;;;;;;16.60;66.50;;;;;;5068979;28;19965;-40
2022/06/06 08:15:19;;;;;;;;;;;16.60;64.10;;;;;;5083774;28;20003;-44
2022/06/06 08:17:53;;;;;;;;;;;16.70;68.00;;;;;;5075575;28;19912;-53
2022/06/06 08:20:19;;;;;;;;;;;16.70;67.60;;;;;;5054678;28;19942;-43
2022/06/06 08:22:46;;;;;;;;;;;16.70;68.40;;;;;;5077550;28;19909;-49
2022/06/06 08:25:15;;;;;;;;;;;16.70;68.70;;;;;;5069703;28;19947;-50
2022/06/06 08:27:47;;;;;;;;;;;16.70;68.70;;;;;;5069246;28;19916;-61
2022/06/06 08:30:15;;;;;;;;;;;16.60;68.60;;;;;;5071992;28;19909;-54
2022/06/06 08:32:42;;;;;;;;;;;16.70;67.70;;;;;;5073623;28;19912;-52
2022/06/06 08:35:09;;;;;;;;;;;16.60;67.30;;;;;;5073895;28;19916;-52
2022/06/06 08:37:51;;;;;;;;;;;16.60;68.10;;;;;;5073731;28;19924;-49
2022/06/06 08:40:35;;;;;;;;;;;16.60;69.00;;;;;;5074072;28;20363;-50
2022/06/06 08:43:22;;;;;;;;;;;16.60;69.30;;;;;;5073363;28;19908;-58
2022/06/06 08:45:49;;;;;;;;;;;16.60;69.50;;;;;;5073660;28;19909;-54
2022/06/06 08:48:21;;;;;;;;;;;16.60;69.50;;;;;;5073820;28;19908;-53
2022/06/06 08:51:13;;;;;;;;;;;16.60;69.50;;;;;;5073394;28;19973;-58
2022/06/06 08:53:59;;;;;;;;;;;16.60;69.70;;;;;;5073690;28;19971;-58
2022/06/06 08:56:25;;;;;;;;;;;16.60;69.10;;;;;;5074529;28;19929;-56
2022/06/06 08:58:55;;;;;;;;;;;16.60;69.70;;;;;;5093174;28;19947;-52
2022/06/06 09:01:28;;;;;;;;;;;16.60;69.80;;;;;;5092542;28;19915;-50
2022/06/06 09:04:13;;;;;;;;;;;16.60;69.10;;;;;;5091382;28;19908;-52
2022/06/06 09:06:56;;;;;;;;;;;16.60;69.20;;;;;;5080363;28;20069;-45
2022/06/06 09:09:43;;;;;;;;;;;16.70;71.40;;;;;;5055501;28;19924;-52
2022/06/06 09:12:28;;;;;;;;;;;16.70;72.40;;;;;;5053974;28;19909;-48
2022/06/06 09:15:15;;;;;;;;;;;16.70;73.80;;;;;;5054374;28;20269;-43
2022/06/06 09:17:51;;;;;;;;;;;16.70;72.60;;;;;;5070692;28;20017;-65
2022/06/06 09:20:21;;;;;;;;;;;16.70;73.30;;;;;;5075643;28;20377;-63
2022/06/06 09:22:57;;;;;;;;;;;16.70;72.60;;;;;;5094216;28;20003;-44
2022/06/06 09:25:37;;;;;;;;;;;16.70;74.20;;;;;;5093950;28;19915;-41
2022/06/06 09:28:23;;;;;;;;;;;16.80;73.90;;;;;;5093561;28;19908;-59
2022/06/06 09:31:08;;;;;;;;;;;16.80;74.20;;;;;;5083415;28;20355;-38
2022/06/06 09:33:34;;;;;;;;;;;16.80;75.40;;;;;;5073895;28;19916;-52
2022/06/06 09:36:19;;;;;;;;;;;16.80;75.40;;;;;;5071343;28;19932;-54
2022/06/06 09:39:04;;;;;;;;;;;16.80;75.70;;;;;;5052798;28;19928;-46
2022/06/06 09:41:36;;;;;;;;;;;16.80;75.60;;;;;;5053148;28;19909;-45
2022/06/06 09:44:09;;;;;;;;;;;16.90;77.80;;;;;;5053114;28;20419;-57
2022/06/06 09:46:42;;;;;;;;;;;16.90;77.40;;;;;;5052958;28;19909;-57
2022/06/06 09:49:08;;;;;;;;;;;17.00;76.00;;;;;;5053596;28;19916;-47
2022/06/06 09:51:53;;;;;;;;;;;17.00;75.30;;;;;;5052353;28;19999;-40
2022/06/06 10:00:34;;;;;;;;;;;16.80;75.30;;;;;;5053564;28;19964;-53
2022/06/06 10:03:21;;;;;;;;;;;16.80;74.10;;;;;;5052905;28;19913;-46
2022/06/06 10:06:06;;;;;;;;;;;16.70;70.90;;;;;;5053135;28;19916;-55
2022/06/06 10:08:47;;;;;;;;;;;16.60;72.10;;;;;;5067846;28;20048;-53
2022/06/06 10:11:32;;;;;;;;;;;16.60;71.70;;;;;;5072785;28;20347;-45
2022/06/06 10:14:26;;;;;;;;;;;16.50;70.10;;;;;;5072447;28;19908;-44
2022/06/06 10:17:08;;;;;;;;;;;16.50;71.60;;;;;;5105395;28;19936;-54
2022/06/06 10:20:04;;;;;;;;;;;16.40;70.60;;;;;;5071533;28;19927;-51
2022/06/06 10:22:30;;;;;;;;;;;16.50;69.00;;;;;;5077126;28;19974;-46
2022/06/06 10:25:12;;;;;;;;;;;16.20;63.10;;;;;;5088921;28;19908;-49
2022/06/06 10:27:48;;;;;;;;;;;16.20;68.00;;;;;;5090712;28;19916;-53
2022/06/06 10:30:18;;;;;;;;;;;16.10;69.20;;;;;;5089995;28;20378;-54
2022/06/06 10:32:56;;;;;;;;;;;15.90;63.10;;;;;;5089686;28;19930;-46
2022/06/06 10:35:25;;;;;;;;;;;16.10;68.80;;;;;;5087491;28;19969;-50
2022/06/06 10:37:59;;;;;;;;;;;16.20;66.30;;;;;;5092580;28;19951;-58
2022/06/06 10:40:31;;;;;;;;;;;16.10;67.60;;;;;;5092807;28;20351;-58
2022/06/06 10:43:05;;;;;;;;;;;16.10;66.40;;;;;;5091138;28;19908;-52
2022/06/06 10:45:48;;;;;;;;;;;16.00;68.00;;;;;;5092171;28;20267;-52
2022/06/06 10:48:18;;;;;;;;;;;16.00;68.20;;;;;;5093180;28;19908;-53
2022/06/06 10:51:51;;;;;;;;;;;16.10;68.80;;;;;;5093008;28;19941;-52
2022/06/06 10:54:11;;;;;;;;;;;16.00;69.20;;;;;;5090876;28;20011;-53
2022/06/06 10:56:51;;;;;;;;;;;16.00;69.40;;;;;;5080065;28;19908;-61
2022/06/06 10:59:29;;;;;;;;;;;16.00;69.50;;;;;;5090921;28;20200;-49
2022/06/06 11:02:14;;;;;;;;;;;15.90;69.40;;;;;;5090853;28;19912;-59
2022/06/06 11:04:44;;;;;;;;;;;15.90;69.70;;;;;;5090150;28;20554;-55
2022/06/06 11:07:25;;;;;;;;;;;15.80;70.80;;;;;;5094417;28;19962;-53
2022/06/06 11:09:52;;;;;;;;;;;15.80;70.60;;;;;;5112793;28;19915;-52
2022/06/06 11:12:40;;;;;;;;;;;15.80;70.60;;;;;;5112647;28;19947;-59
2022/06/06 11:15:07;;;;;;;;;;;15.80;70.90;;;;;;5112884;28;19907;-60
2022/06/06 11:17:34;;;;;;;;;;;15.70;70.90;;;;;;5113074;28;19914;-52
2022/06/06 11:20:18;;;;;;;;;;;15.70;71.10;;;;;;5112787;28;19923;-57
2022/06/06 11:23:01;;;;;;;;;;;15.70;71.50;;;;;;5112934;28;19912;-52
2022/06/06 11:25:28;;;;;;;;;;;15.70;71.60;;;;;;5113439;28;20358;-55
2022/06/06 11:28:01;;;;;;;;;;;15.60;71.70;;;;;;5113077;28;19908;-49
2022/06/06 11:30:43;;;;;;;;;;;15.60;71.70;;;;;;5114290;28;19908;-55
2022/06/06 11:33:26;;;;;;;;;;;15.60;72.00;;;;;;5116903;28;19915;-58
2022/06/06 11:36:07;;;;;;;;;;;15.60;71.90;;;;;;5116866;28;19911;-52
2022/06/06 11:38:46;;;;;;;;;;;15.50;72.00;;;;;;5116173;28;19912;-55
2022/06/06 11:41:19;;;;;;;;;;;15.50;72.30;;;;;;5116210;28;19950;-54
2022/06/06 11:43:48;;;;;;;;;;;15.50;72.40;;;;;;5116592;28;19908;-57
2022/06/06 11:46:33;;;;;;;;;;;15.50;72.50;;;;;;5116787;28;19912;-55
2022/06/06 11:49:05;;;;;;;;;;;15.50;72.60;;;;;;5116466;28;19908;-58
2022/06/06 11:51:50;;;;;;;;;;;15.40;72.60;;;;;;5116159;28;19912;-57
2022/06/06 11:54:35;;;;;;;;;;;15.40;72.70;;;;;;5116060;28;19908;-56
2022/06/06 11:57:20;;;;;;;;;;;15.40;72.70;;;;;;5115992;28;20358;-56
2022/06/06 12:00:05;;;;;;;;;;;15.40;72.90;;;;;;5116174;28;19916;-44
2022/06/06 12:02:50;;;;;;;;;;;15.40;72.90;;;;;;5115901;28;19907;-47
2022/06/06 12:05:17;;;;;;;;;;;15.30;73.10;;;;;;5116070;28;19908;-57
2022/06/06 12:08:00;;;;;;;;;;;15.30;72.90;;;;;;5115746;28;20281;-55
2022/06/06 12:10:30;;;;;;;;;;;15.30;73.60;;;;;;5097196;28;19923;-58
2022/06/06 12:13:03;;;;;;;;;;;15.30;73.10;;;;;;5115710;28;19940;-48
2022/06/06 12:15:49;;;;;;;;;;;15.30;73.10;;;;;;5116463;28;19908;-53
2022/06/06 12:18:22;;;;;;;;;;;15.30;73.20;;;;;;5116036;28;20375;-58
2022/06/06 12:21:07;;;;;;;;;;;15.30;73.20;;;;;;5115724;28;19915;-59
2022/06/06 12:23:45;;;;;;;;;;;15.30;73.20;;;;;;5115333;28;20363;-44
2022/06/06 12:26:18;;;;;;;;;;;15.20;73.20;;;;;;5115588;28;20371;-57
2022/06/06 12:29:03;;;;;;;;;;;15.20;73.30;;;;;;5115534;28;20321;-48
2022/06/06 12:31:48;;;;;;;;;;;15.20;73.20;;;;;;5115801;28;19957;-52
2022/06/06 12:34:18;;;;;;;;;;;15.20;73.20;;;;;;5115852;28;19908;-46
2022/06/06 12:36:48;;;;;;;;;;;15.20;73.50;;;;;;5096945;28;20412;-51
2022/06/06 12:39:33;;;;;;;;;;;15.20;73.60;;;;;;5115471;28;19916;-51
2022/06/06 12:42:05;;;;;;;;;;;15.10;73.40;;;;;;5115057;28;19911;-49
2022/06/06 12:44:38;;;;;;;;;;;15.20;73.40;;;;;;5115409;28;20334;-54
2022/06/06 12:47:11;;;;;;;;;;;15.10;73.40;;;;;;5115459;28;19961;-46
2022/06/06 12:49:47;;;;;;;;;;;15.10;73.50;;;;;;5115460;28;19908;-58
2022/06/06 12:52:23;;;;;;;;;;;15.10;73.50;;;;;;5115562;28;19915;-53
2022/06/06 12:57:32;;;;;;;;;;;15.10;73.40;;;;;;5115345;28;20422;-54
2022/06/06 13:00:12;;;;;;;;;;;15.00;73.60;;;;;;5115211;28;19961;-49
2022/06/06 13:02:38;;;;;;;;;;;15.00;73.60;;;;;;5114940;28;19914;-52
2022/06/06 13:05:20;;;;;;;;;;;15.00;73.60;;;;;;5114897;28;19912;-57
2022/06/06 13:07:59;;;;;;;;;;;15.00;74.30;;;;;;5114647;28;19968;-43
2022/06/06 13:10:44;;;;;;;;;;;15.00;73.60;;;;;;5114715;28;19926;-46
2022/06/06 13:13:28;;;;;;;;;;;15.00;73.90;;;;;;5115411;28;19911;-51
2022/06/06 13:16:13;;;;;;;;;;;15.00;73.70;;;;;;5096524;28;19957;-50
2022/06/06 13:18:43;;;;;;;;;;;14.90;73.70;;;;;;5114747;28;19912;-50
2022/06/06 13:21:13;;;;;;;;;;;14.90;73.70;;;;;;5114903;28;20000;-54
2022/06/06 13:23:49;;;;;;;;;;;14.90;74.40;;;;;;5114899;28;20424;-47
2022/06/06 13:26:19;;;;;;;;;;;14.90;73.80;;;;;;5114961;28;20354;-52
2022/06/06 13:28:49;;;;;;;;;;;14.90;73.90;;;;;;5114332;28;19907;-55
2022/06/06 13:31:28;;;;;;;;;;;14.90;73.80;;;;;;5114488;28;19911;-56
2022/06/06 13:33:55;;;;;;;;;;;14.90;73.80;;;;;;5114322;28;20262;-52
2022/06/06 13:36:24;;;;;;;;;;;14.90;73.90;;;;;;5104716;28;19951;-41
2022/06/06 13:39:00;;;;;;;;;;;14.80;73.80;;;;;;5093706;28;19919;-46
2022/06/06 13:41:42;;;;;;;;;;;14.80;73.90;;;;;;5093904;28;19965;-46
2022/06/06 13:44:24;;;;;;;;;;;14.70;74.10;;;;;;5093925;28;20037;-48
2022/06/06 13:47:09;;;;;;;;;;;14.80;74.10;;;;;;5093953;28;20424;-43
2022/06/06 13:49:53;;;;;;;;;;;14.70;74.10;;;;;;5093951;28;19958;-46
2022/06/06 13:52:27;;;;;;;;;;;14.70;74.20;;;;;;5093341;28;20386;-49
2022/06/06 13:54:54;;;;;;;;;;;14.70;74.10;;;;;;5093596;28;19908;-51
2022/06/06 13:57:21;;;;;;;;;;;14.60;74.20;;;;;;5093587;28;19914;-53
2022/06/06 14:00:07;;;;;;;;;;;14.70;74.30;;;;;;5093630;28;19916;-51
2022/06/06 14:02:53;;;;;;;;;;;14.70;74.40;;;;;;5093414;28;19954;-53
2022/06/06 14:05:40;;;;;;;;;;;14.60;74.30;;;;;;5093643;28;19908;-53
2022/06/06 14:08:13;;;;;;;;;;;14.60;74.40;;;;;;5093179;28;19920;-43
2022/06/06 14:10:43;;;;;;;;;;;14.60;74.40;;;;;;5093078;28;20053;-52
2022/06/06 14:13:10;;;;;;;;;;;14.60;74.40;;;;;;5093711;28;20418;-51
2022/06/06 14:15:43;;;;;;;;;;;14.60;74.40;;;;;;5093389;28;20227;-52
2022/06/06 14:18:12;;;;;;;;;;;14.60;74.50;;;;;;5093448;28;19941;-56
2022/06/06 14:20:45;;;;;;;;;;;14.60;74.50;;;;;;5093120;28;20255;-55
2022/06/06 14:23:27;;;;;;;;;;;14.50;74.50;;;;;;5093257;28;19908;-58
2022/06/06 14:25:56;;;;;;;;;;;14.50;74.50;;;;;;5091805;28;19916;-51
2022/06/06 14:28:25;;;;;;;;;;;14.50;74.40;;;;;;5093327;28;20446;-52
2022/06/06 14:30:52;;;;;;;;;;;14.50;74.50;;;;;;5093356;28;19912;-59
2022/06/06 14:33:28;;;;;;;;;;;14.50;74.50;;;;;;5093360;28;19908;-58
2022/06/06 14:35:55;;;;;;;;;;;14.50;74.60;;;;;;5093509;28;20003;-52
2022/06/06 14:38:26;;;;;;;;;;;14.50;74.60;;;;;;5093110;28;20329;-51
2022/06/06 14:40:56;;;;;;;;;;;14.50;74.60;;;;;;5093090;28;19909;-55
2022/06/06 14:43:23;;;;;;;;;;;14.50;74.70;;;;;;5093276;28;19912;-57
2022/06/06 14:45:55;;;;;;;;;;;14.50;74.80;;;;;;5093084;28;19908;-54
2022/06/06 14:48:33;;;;;;;;;;;14.50;74.80;;;;;;5093073;28;19908;-55
2022/06/06 14:51:01;;;;;;;;;;;14.50;74.70;;;;;;5093104;28;19908;-57
2022/06/06 14:53:33;;;;;;;;;;;14.40;74.70;;;;;;5093152;28;19915;-53
2022/06/06 14:56:05;;;;;;;;;;;14.40;74.80;;;;;;5093409;28;20361;-58
2022/06/06 14:58:33;;;;;;;;;;;14.40;74.90;;;;;;5092715;28;20358;-53
2022/06/06 15:01:06;;;;;;;;;;;14.40;75.00;;;;;;5093069;28;20321;-57
2022/06/06 15:03:36;;;;;;;;;;;14.40;75.00;;;;;;5092828;28;20005;-58
2022/06/06 15:06:06;;;;;;;;;;;14.40;75.10;;;;;;5096900;28;19911;-56
2022/06/06 15:08:35;;;;;;;;;;;14.40;75.10;;;;;;5095443;28;19924;-58
2022/06/06 15:11:12;;;;;;;;;;;14.40;75.20;;;;;;5096672;28;19912;-56
2022/06/06 15:13:42;;;;;;;;;;;14.40;75.20;;;;;;5096847;28;20290;-56
2022/06/06 15:16:10;;;;;;;;;;;14.40;75.30;;;;;;5096868;28;19912;-56
2022/06/06 15:18:41;;;;;;;;;;;14.30;75.30;;;;;;5129166;27;20286;-57
2022/06/06 15:21:08;;;;;;;;;;;14.30;75.30;;;;;;5096771;28;19912;-51
2022/06/06 15:23:55;;;;;;;;;;;14.30;75.40;;;;;;5096759;28;19908;-56